Terminal Aerodrome Forecast
Issued by NWS

Home | Current Version | Previous Version | Text Only | Print | Product List | Glossary On
Versions: 1 2 3 4 5 6 7 8 9 10 11 12 13 14 15 16 17 18 19 20 21 22 23 24 25 26 27 28 29 30 31 32 33
000
FTUS41 KBOX 272027 AAA
TAFACK
TAF AMD
KACK 272027Z 2720/2818 36014KT P6SM FEW007 OVC080
     FM280200 01009KT 5SM BR OVC030
     FM280500 01009KT 2SM -SHRA BR OVC025
     FM280700 01009KT 3SM -SHRA BR OVC020
     FM281100 02012KT 3SM -SHRA BR OVC015=

USA.gov is the U.S. government's official web portal to all federal, state and local government web resources and services.